createdAt,value
2022-08-23T00:01:21.093Z,21.28
2022-08-23T00:03:49.269Z,21.32
2022-08-23T00:06:18.301Z,21.16
2022-08-23T00:08:48.593Z,21.29
2022-08-23T00:11:29.620Z,21.31
2022-08-23T00:13:58.623Z,21.34
2022-08-23T00:16:26.610Z,21.30
2022-08-23T00:18:54.621Z,21.24
2022-08-23T00:21:23.288Z,21.27
2022-08-23T00:23:51.108Z,21.23
2022-08-23T00:26:20.535Z,21.14
2022-08-23T00:28:50.916Z,21.20
2022-08-23T00:31:19.636Z,21.14
2022-08-23T00:33:47.495Z,21.12
2022-08-23T00:36:15.583Z,21.10
2022-08-23T00:38:43.549Z,21.03
2022-08-23T00:41:11.320Z,21.05
2022-08-23T00:44:00.291Z,21.05
2022-08-23T00:47:01.141Z,21.01
2022-08-23T00:49:30.581Z,21.00
2022-08-23T00:52:03.513Z,21.03
2022-08-23T00:54:33.126Z,20.94
2022-08-23T00:57:05.800Z,20.90
2022-08-23T00:59:33.989Z,20.91
2022-08-23T01:04:34.361Z,20.91
2022-08-23T01:07:11.008Z,20.86
2022-08-23T01:09:41.964Z,20.92
2022-08-23T01:12:16.334Z,20.84
2022-08-23T01:14:52.588Z,20.85
2022-08-23T01:17:26.108Z,20.85
2022-08-23T01:19:57.889Z,20.81
2022-08-23T01:22:34.260Z,20.85
2022-08-23T01:25:08.916Z,20.81
2022-08-23T01:27:43.127Z,20.78
2022-08-23T01:30:16.863Z,20.76
2022-08-23T01:32:53.834Z,20.71
2022-08-23T01:37:59.906Z,20.63
2022-08-23T01:40:29.758Z,20.58
2022-08-23T01:42:57.656Z,20.58
2022-08-23T01:45:25.545Z,20.66
2022-08-23T01:47:53.487Z,20.66
2022-08-23T01:50:22.683Z,20.65
2022-08-23T01:52:50.664Z,20.69
2022-08-23T01:55:21.814Z,20.60
2022-08-23T01:57:56.825Z,20.57
2022-08-23T02:00:29.828Z,20.44
2022-08-23T02:02:57.925Z,20.47
2022-08-23T02:05:26.862Z,20.50
2022-08-23T02:07:55.703Z,20.39
2022-08-23T02:10:24.241Z,20.45
2022-08-23T02:12:53.771Z,20.38
2022-08-23T02:15:23.224Z,20.39
2022-08-23T02:17:51.122Z,20.42
2022-08-23T02:20:19.358Z,20.40
2022-08-23T02:22:47.252Z,20.41
2022-08-23T02:25:15.124Z,20.38
2022-08-23T02:27:43.977Z,20.33
2022-08-23T02:30:15.333Z,20.29
2022-08-23T02:32:43.986Z,20.29
2022-08-23T02:35:13.190Z,20.19
2022-08-23T02:37:40.994Z,20.17
2022-08-23T02:40:09.929Z,20.14
2022-08-23T02:42:38.901Z,20.00
2022-08-23T02:45:09.725Z,20.02
2022-08-23T02:47:46.308Z,19.95
2022-08-23T02:50:20.501Z,19.97
2022-08-23T02:52:48.802Z,19.84
2022-08-23T02:55:17.070Z,19.82
2022-08-23T02:57:45.069Z,19.74
2022-08-23T03:00:16.078Z,19.71
2022-08-23T03:02:45.971Z,19.69
2022-08-23T03:05:15.555Z,19.56
2022-08-23T03:07:44.204Z,19.50
2022-08-23T03:10:13.234Z,19.44
2022-08-23T03:12:47.485Z,19.43
2022-08-23T03:15:15.592Z,19.39
2022-08-23T03:17:43.435Z,19.40
2022-08-23T03:20:13.136Z,19.40
2022-08-23T03:22:41.757Z,19.45
2022-08-23T03:25:19.219Z,19.45
2022-08-23T03:28:04.535Z,19.39
2022-08-23T03:30:33.912Z,19.41
2022-08-23T03:33:02.559Z,19.40
2022-08-23T03:35:33.228Z,19.38
2022-08-23T03:38:02.191Z,19.28
2022-08-23T03:40:30.318Z,19.17
2022-08-23T03:42:58.238Z,19.13
2022-08-23T03:45:28.711Z,19.23
2022-08-23T03:47:56.782Z,19.26
2022-08-23T03:50:24.834Z,19.25
2022-08-23T03:52:55.372Z,19.18
2022-08-23T03:55:23.229Z,19.14
2022-08-23T03:57:52.259Z,19.19
2022-08-23T04:00:22.042Z,19.11
2022-08-23T04:02:52.787Z,19.10
2022-08-23T04:05:22.319Z,19.16
2022-08-23T04:08:13.214Z,19.07
2022-08-23T04:10:43.671Z,19.05
2022-08-23T04:13:12.001Z,19.03
2022-08-23T04:15:39.925Z,18.93
2022-08-23T04:18:11.550Z,18.98
2022-08-23T04:20:39.627Z,18.94
2022-08-23T04:23:07.509Z,18.92
2022-08-23T04:25:47.617Z,18.94
2022-08-23T04:28:16.237Z,18.84
2022-08-23T04:30:44.741Z,18.95
2022-08-23T04:33:18.239Z,18.96
2022-08-23T04:35:47.386Z,18.99
2022-08-23T04:38:24.270Z,19.04
2022-08-23T04:41:11.244Z,19.13
2022-08-23T04:43:40.318Z,19.20
2022-08-23T04:46:10.214Z,19.25
2022-08-23T04:48:38.376Z,19.31
2022-08-23T04:51:06.407Z,19.30
2022-08-23T04:53:37.248Z,19.34
2022-08-23T04:56:24.856Z,19.48
2022-08-23T04:58:54.134Z,19.42
2022-08-23T05:01:25.459Z,19.51
2022-08-23T05:03:55.549Z,19.49
2022-08-23T05:06:25.842Z,19.63
2022-08-23T05:08:54.081Z,19.66
2022-08-23T05:11:22.675Z,19.54
2022-08-23T05:13:52.172Z,19.64
2022-08-23T05:16:21.366Z,19.64
2022-08-23T05:18:57.159Z,19.66
2022-08-23T05:21:26.280Z,19.72
2022-08-23T05:23:55.294Z,19.81
2022-08-23T05:26:26.053Z,19.66
2022-08-23T05:28:55.271Z,19.84
2022-08-23T05:31:30.357Z,19.93
2022-08-23T05:34:00.489Z,19.99
2022-08-23T05:36:34.632Z,20.02
2022-08-23T05:39:02.782Z,20.02
2022-08-23T05:41:37.971Z,19.97
2022-08-23T05:44:10.323Z,20.01
2022-08-23T05:46:42.222Z,20.02
2022-08-23T05:49:30.076Z,20.03
2022-08-23T05:51:59.237Z,20.08
2022-08-23T05:54:31.791Z,20.09
2022-08-23T05:57:17.441Z,20.16
2022-08-23T05:59:54.398Z,20.15
2022-08-23T06:02:22.417Z,20.15
2022-08-23T06:04:52.423Z,20.23
2022-08-23T06:07:24.065Z,20.20
2022-08-23T06:09:52.558Z,20.17
2022-08-23T06:12:20.475Z,20.18
2022-08-23T06:14:50.263Z,20.18
2022-08-23T06:17:21.377Z,20.12
2022-08-23T06:19:52.390Z,20.24
2022-08-23T06:22:27.061Z,20.31
2022-08-23T06:24:55.047Z,20.39
2022-08-23T06:27:38.083Z,20.42
2022-08-23T06:30:08.675Z,20.62
2022-08-23T06:32:47.018Z,20.83
2022-08-23T06:38:20.849Z,21.01
2022-08-23T06:41:17.692Z,21.11
2022-08-23T06:44:02.663Z,21.09
2022-08-23T06:46:35.912Z,21.07
2022-08-23T06:49:05.400Z,21.10
2022-08-23T06:51:36.038Z,21.09
2022-08-23T06:54:35.538Z,21.03
2022-08-23T06:57:23.063Z,20.86
2022-08-23T07:00:11.273Z,20.79
2022-08-23T07:03:06.399Z,20.78
2022-08-23T07:06:09.419Z,20.90
2022-08-23T07:11:06.883Z,20.90
2022-08-23T07:13:34.748Z,20.95
2022-08-23T07:16:03.760Z,21.02
2022-08-23T07:18:35.188Z,21.06
2022-08-23T07:21:05.585Z,21.12
2022-08-23T07:23:35.042Z,21.16
2022-08-23T07:26:10.286Z,21.17
2022-08-23T07:28:39.590Z,21.28
2022-08-23T07:31:11.357Z,21.39
2022-08-23T07:33:45.136Z,21.50
2022-08-23T07:36:19.576Z,21.59
2022-08-23T07:38:48.102Z,21.70
2022-08-23T07:41:17.762Z,21.78
2022-08-23T07:43:46.536Z,21.76
2022-08-23T07:46:16.080Z,21.85
2022-08-23T07:48:54.961Z,21.91
2022-08-23T07:51:34.504Z,21.94
2022-08-23T07:54:04.297Z,22.00
2022-08-23T07:56:33.107Z,22.06
2022-08-23T07:59:18.195Z,22.14
2022-08-23T08:01:56.595Z,22.21
2022-08-23T08:04:26.839Z,22.29
2022-08-23T08:07:17.728Z,22.36
2022-08-23T08:09:47.192Z,22.44
2022-08-23T08:12:16.245Z,22.48
2022-08-23T08:14:44.520Z,22.53
2022-08-23T08:17:15.452Z,22.63
2022-08-23T08:20:03.474Z,22.75
2022-08-23T08:22:58.689Z,22.78
2022-08-23T08:25:46.750Z,22.82
2022-08-23T08:28:17.607Z,22.92
2022-08-23T08:30:45.515Z,22.99
2022-08-23T08:33:14.839Z,23.04
2022-08-23T08:35:58.003Z,23.12
2022-08-23T08:38:32.070Z,23.15
2022-08-23T08:41:12.782Z,23.24
2022-08-23T08:43:58.771Z,23.33
2022-08-23T08:46:43.500Z,23.47
2022-08-23T08:49:17.532Z,23.52
2022-08-23T08:51:54.192Z,23.61
2022-08-23T08:54:27.321Z,23.67
2022-08-23T08:56:59.081Z,23.88
2022-08-23T08:59:31.720Z,23.85
2022-08-23T09:02:00.110Z,24.08
2022-08-23T09:04:38.816Z,23.98
2022-08-23T09:07:16.469Z,24.05
2022-08-23T09:10:04.754Z,24.06
2022-08-23T09:12:44.916Z,24.09
2022-08-23T09:15:25.367Z,24.10
2022-08-23T09:17:59.380Z,24.30
2022-08-23T09:20:33.141Z,24.38
2022-08-23T09:23:08.708Z,24.43
2022-08-23T09:25:39.054Z,24.47
2022-08-23T09:28:15.394Z,24.57
2022-08-23T09:30:50.223Z,24.80
2022-08-23T09:33:21.708Z,24.72
2022-08-23T09:36:14.178Z,24.72
2022-08-23T09:38:54.833Z,24.81
2022-08-23T09:41:28.453Z,24.84
2022-08-23T09:44:01.754Z,25.19
2022-08-23T09:46:33.327Z,25.15
2022-08-23T09:49:23.685Z,25.19
2022-08-23T09:51:56.771Z,25.15
2022-08-23T09:54:31.996Z,25.15
2022-08-23T09:57:03.855Z,25.14
2022-08-23T09:59:44.394Z,25.22
2022-08-23T10:02:25.128Z,25.32
2022-08-23T10:05:02.790Z,25.42
2022-08-23T10:07:42.420Z,25.45
2022-08-23T10:10:23.788Z,25.41
2022-08-23T10:12:56.462Z,25.48
2022-08-23T10:15:36.880Z,25.49
2022-08-23T10:18:12.126Z,25.68
2022-08-23T10:20:48.954Z,25.73
2022-08-23T10:23:24.806Z,25.74
2022-08-23T10:25:59.182Z,25.76
2022-08-23T10:28:58.113Z,25.90
2022-08-23T10:31:36.646Z,25.88
2022-08-23T10:34:29.977Z,26.02
2022-08-23T10:37:14.290Z,25.91
2022-08-23T10:39:48.028Z,25.95
2022-08-23T10:42:27.181Z,25.89
2022-08-23T10:45:04.724Z,25.89
2022-08-23T10:47:38.177Z,26.01
2022-08-23T10:50:13.636Z,25.98
2022-08-23T10:52:53.867Z,26.03
2022-08-23T10:55:39.127Z,25.95
2022-08-23T10:58:12.110Z,26.02
2022-08-23T11:00:41.467Z,26.28
2022-08-23T11:03:19.284Z,26.25
2022-08-23T11:06:21.969Z,26.25
2022-08-23T11:08:58.228Z,26.24
2022-08-23T11:11:43.412Z,26.21
2022-08-23T11:14:26.897Z,26.32
2022-08-23T11:17:00.530Z,26.25
2022-08-23T11:19:50.476Z,26.33
2022-08-23T11:22:26.091Z,26.44
2022-08-23T11:25:00.839Z,26.45
2022-08-23T11:27:40.435Z,26.41
2022-08-23T11:30:46.447Z,26.45
2022-08-23T11:33:23.887Z,26.46
2022-08-23T11:35:56.603Z,26.49
2022-08-23T11:39:07.752Z,26.59
2022-08-23T11:41:37.533Z,26.66
2022-08-23T11:44:24.035Z,26.76
2022-08-23T11:47:00.535Z,26.83
2022-08-23T11:50:02.431Z,26.91
2022-08-23T11:52:55.010Z,26.88
2022-08-23T11:55:43.939Z,27.02
2022-08-23T11:58:23.653Z,26.97
2022-08-23T12:01:07.652Z,26.86
2022-08-23T12:03:58.645Z,26.86
2022-08-23T12:06:50.467Z,26.87
2022-08-23T12:09:51.055Z,26.91
2022-08-23T12:12:34.851Z,26.95
2022-08-23T12:15:09.640Z,27.04
2022-08-23T12:18:09.047Z,27.18
2022-08-23T12:20:38.750Z,27.06
2022-08-23T12:23:21.196Z,27.06
2022-08-23T12:26:00.836Z,27.01
2022-08-23T12:28:44.856Z,26.94
2022-08-23T12:31:26.524Z,27.00
2022-08-23T12:34:07.443Z,27.04
2022-08-23T12:36:42.224Z,27.08
2022-08-23T12:39:23.278Z,27.21
2022-08-23T12:41:56.585Z,27.23
2022-08-23T12:44:30.557Z,27.33
2022-08-23T12:47:13.562Z,27.34
2022-08-23T12:49:42.297Z,27.44
2022-08-23T12:52:13.673Z,27.41
2022-08-23T12:54:43.812Z,27.41
2022-08-23T12:57:15.893Z,27.50
2022-08-23T12:59:53.176Z,27.56
2022-08-23T13:02:25.829Z,27.55
2022-08-23T13:04:59.574Z,27.57
2022-08-23T13:07:29.038Z,27.54
2022-08-23T13:09:57.706Z,27.51
2022-08-23T13:12:28.062Z,27.53
2022-08-23T13:14:58.821Z,27.63
2022-08-23T13:17:33.083Z,27.72
2022-08-23T13:20:28.340Z,27.84
2022-08-23T13:23:01.157Z,27.81
2022-08-23T13:25:32.726Z,27.69
2022-08-23T13:28:03.130Z,27.77
2022-08-23T13:30:33.277Z,27.68
2022-08-23T13:33:28.329Z,27.70
2022-08-23T13:36:13.239Z,27.71
2022-08-23T13:38:45.127Z,27.77
2022-08-23T13:41:32.004Z,27.86
2022-08-23T13:44:08.407Z,27.86
2022-08-23T13:46:45.205Z,27.87
2022-08-23T13:49:18.919Z,27.87
2022-08-23T13:52:38.060Z,27.83
2022-08-23T13:54:57.000Z,27.92
2022-08-23T13:57:29.583Z,27.95
2022-08-23T13:59:59.851Z,27.97
2022-08-23T14:02:29.467Z,28.02
2022-08-23T14:04:57.435Z,28.03
2022-08-23T14:07:25.260Z,28.02
2022-08-23T14:09:55.123Z,28.02
2022-08-23T14:12:27.877Z,28.03
2022-08-23T14:14:57.218Z,28.11
2022-08-23T14:17:25.469Z,28.11
2022-08-23T14:20:31.799Z,28.16
2022-08-23T14:22:42.021Z,28.13
2022-08-23T14:25:12.374Z,28.18
2022-08-23T14:27:42.972Z,28.20
2022-08-23T14:30:13.946Z,28.17
2022-08-23T14:32:42.040Z,28.12
2022-08-23T14:35:11.077Z,28.28
2022-08-23T14:40:27.687Z,28.37
2022-08-23T14:42:56.956Z,28.45
2022-08-23T14:45:25.059Z,28.49
2022-08-23T14:47:52.904Z,28.39
2022-08-23T14:50:20.896Z,28.50
2022-08-23T14:52:49.150Z,28.61
2022-08-23T14:55:17.078Z,28.68
2022-08-23T14:57:45.396Z,28.71
2022-08-23T15:00:16.136Z,28.86
2022-08-23T15:02:45.519Z,28.75
2022-08-23T15:05:13.812Z,28.87
2022-08-23T15:07:41.897Z,28.88
2022-08-23T15:13:28.463Z,29.10
2022-08-23T15:15:54.668Z,29.17
2022-08-23T15:18:22.898Z,29.31
2022-08-23T15:20:52.429Z,29.36
2022-08-23T15:23:21.370Z,29.40
2022-08-23T15:25:49.918Z,29.32
2022-08-23T15:28:20.884Z,29.33
2022-08-23T15:30:50.124Z,29.33
2022-08-23T15:33:24.743Z,29.25
2022-08-23T15:35:58.701Z,29.59
2022-08-23T15:38:26.766Z,30.03
2022-08-23T15:40:55.634Z,30.28
2022-08-23T15:43:25.859Z,30.51
2022-08-23T15:46:06.217Z,30.54
2022-08-23T15:48:38.463Z,30.81
2022-08-23T15:51:07.302Z,31.11
2022-08-23T15:53:35.351Z,31.43
2022-08-23T15:56:05.801Z,31.38
2022-08-23T15:58:33.954Z,31.40
2022-08-23T16:01:02.644Z,31.09
2022-08-23T16:03:30.763Z,30.71
2022-08-23T16:06:00.304Z,30.42
2022-08-23T16:08:30.211Z,30.71
2022-08-23T16:10:59.323Z,30.94
2022-08-23T16:13:27.885Z,31.31
2022-08-23T16:15:56.497Z,31.72
2022-08-23T16:18:24.943Z,31.94
2022-08-23T16:20:54.549Z,32.16
2022-08-23T16:23:26.411Z,32.28
2022-08-23T16:25:56.883Z,32.17
2022-08-23T16:28:28.839Z,31.96
2022-08-23T16:30:56.876Z,31.56
2022-08-23T16:33:24.808Z,31.51
2022-08-23T16:35:52.693Z,31.87
2022-08-23T16:38:20.640Z,31.87
2022-08-23T16:40:49.831Z,31.92
2022-08-23T16:43:17.682Z,32.22
2022-08-23T16:45:45.590Z,32.58
2022-08-23T16:48:14.941Z,32.85
2022-08-23T16:50:42.938Z,33.23
2022-08-23T16:53:11.122Z,33.22
2022-08-23T16:55:40.105Z,33.12
2022-08-23T16:58:09.534Z,33.12
2022-08-23T17:00:38.602Z,33.07
2022-08-23T17:03:07.604Z,33.11
2022-08-23T17:05:35.723Z,33.13
2022-08-23T17:08:03.862Z,32.97
2022-08-23T17:10:33.618Z,33.00
2022-08-23T17:13:02.591Z,32.62
2022-08-23T17:15:33.896Z,32.71
2022-08-23T17:18:02.943Z,32.67
2022-08-23T17:20:33.434Z,32.52
2022-08-23T17:23:01.449Z,32.34
2022-08-23T17:25:33.724Z,31.96
2022-08-23T17:28:01.692Z,30.86
2022-08-23T17:30:31.841Z,30.24
2022-08-23T17:33:01.589Z,29.75
2022-08-23T17:35:33.992Z,29.53
2022-08-23T17:38:05.027Z,29.04
2022-08-23T17:40:40.018Z,28.71
2022-08-23T17:43:08.421Z,28.68
2022-08-23T17:45:43.120Z,28.57
2022-08-23T17:48:11.888Z,28.38
2022-08-23T17:50:40.416Z,28.13
2022-08-23T17:53:08.288Z,28.10
2022-08-23T17:55:36.813Z,27.99
2022-08-23T17:58:05.290Z,27.76
2022-08-23T18:00:34.256Z,27.68
2022-08-23T18:03:03.815Z,27.60
2022-08-23T18:05:34.171Z,27.43
2022-08-23T18:08:02.279Z,27.32
2022-08-23T18:10:30.942Z,27.15
2022-08-23T18:12:59.280Z,27.02
2022-08-23T18:15:28.717Z,26.92
2022-08-23T18:17:58.359Z,26.77
2022-08-23T18:20:29.155Z,26.65
2022-08-23T18:22:58.875Z,26.57
2022-08-23T18:25:27.698Z,26.44
2022-08-23T18:28:07.394Z,26.32
2022-08-23T18:30:36.473Z,26.26
2022-08-23T18:33:05.230Z,26.16
2022-08-23T18:35:34.529Z,26.03
2022-08-23T18:38:02.468Z,25.88
2022-08-23T18:40:31.090Z,25.80
2022-08-23T18:42:59.208Z,25.74
2022-08-23T18:45:28.963Z,25.68
2022-08-23T18:47:56.824Z,25.59
2022-08-23T18:50:24.856Z,25.51
2022-08-23T18:52:54.044Z,25.39
2022-08-23T18:55:22.014Z,25.33
2022-08-23T18:57:49.894Z,25.26
2022-08-23T19:00:17.933Z,25.20
2022-08-23T19:02:46.223Z,25.09
2022-08-23T19:05:14.154Z,24.99
2022-08-23T19:07:41.997Z,24.95
2022-08-23T19:10:18.352Z,24.88
2022-08-23T19:12:51.654Z,24.81
2022-08-23T19:15:32.090Z,24.75
2022-08-23T19:17:59.956Z,24.63
2022-08-23T19:20:28.665Z,24.59
2022-08-23T19:22:57.792Z,24.58
2022-08-23T19:25:27.774Z,24.54
2022-08-23T19:27:59.528Z,24.44
2022-08-23T19:30:28.567Z,24.37
2022-08-23T19:32:56.808Z,24.31
2022-08-23T19:35:24.774Z,24.30
2022-08-23T19:37:52.637Z,24.21
2022-08-23T19:40:20.666Z,24.19
2022-08-23T19:42:50.040Z,24.12
2022-08-23T19:45:19.071Z,24.10
2022-08-23T19:47:47.322Z,24.04
2022-08-23T19:50:15.390Z,23.96
2022-08-23T19:52:51.580Z,23.87
2022-08-23T19:55:19.641Z,23.89
2022-08-23T19:57:48.785Z,23.86
2022-08-23T20:00:19.616Z,23.75
2022-08-23T20:02:48.184Z,23.75
2022-08-23T20:05:16.656Z,23.71
2022-08-23T20:07:44.769Z,23.65
2022-08-23T20:10:14.490Z,23.54
2022-08-23T20:12:42.770Z,23.56
2022-08-23T20:15:13.600Z,23.55
2022-08-23T20:17:42.087Z,23.48
2022-08-23T20:20:13.712Z,23.45
2022-08-23T20:22:59.499Z,23.45
2022-08-23T20:25:30.717Z,23.38
2022-08-23T20:27:59.300Z,23.34
2022-08-23T20:30:28.490Z,23.21
2022-08-23T20:32:56.391Z,23.29
2022-08-23T20:35:24.242Z,23.22
2022-08-23T20:37:52.116Z,23.23
2022-08-23T20:40:21.700Z,23.10
2022-08-23T20:42:51.023Z,23.06
2022-08-23T20:45:19.057Z,23.10
2022-08-23T20:47:48.471Z,23.08
2022-08-23T20:50:16.357Z,23.04
2022-08-23T20:52:44.232Z,23.01
2022-08-23T20:55:14.889Z,22.97
2022-08-23T20:57:42.823Z,22.93
2022-08-23T21:00:11.886Z,22.87
2022-08-23T21:02:39.827Z,22.84
2022-08-23T21:05:09.574Z,22.80
2022-08-23T21:07:37.987Z,22.80
2022-08-23T21:10:06.831Z,22.75
2022-08-23T21:12:34.991Z,22.72
2022-08-23T21:15:02.776Z,22.69
2022-08-23T21:17:30.566Z,22.69
2022-08-23T21:19:58.689Z,22.66
2022-08-23T21:22:32.016Z,22.65
2022-08-23T21:25:00.628Z,22.66
2022-08-23T21:27:29.008Z,22.61
2022-08-23T21:29:56.832Z,22.66
2022-08-23T21:32:24.710Z,22.64
2022-08-23T21:34:52.475Z,22.64
2022-08-23T21:37:20.345Z,22.71
2022-08-23T21:39:50.769Z,22.71
2022-08-23T21:42:23.491Z,22.75
2022-08-23T21:44:51.991Z,22.75
2022-08-23T21:47:20.656Z,22.79
2022-08-23T21:49:48.513Z,22.75
2022-08-23T21:52:16.410Z,22.71
2022-08-23T21:54:44.306Z,22.70
2022-08-23T21:57:13.572Z,22.69
2022-08-23T21:59:41.401Z,22.64
2022-08-23T22:02:09.625Z,22.62
2022-08-23T22:04:37.852Z,22.58
2022-08-23T22:07:06.105Z,22.42
2022-08-23T22:09:34.296Z,22.31
2022-08-23T22:12:02.207Z,22.30
2022-08-23T22:14:32.063Z,22.26
2022-08-23T22:17:00.976Z,22.10
2022-08-23T22:19:29.449Z,22.12
2022-08-23T22:21:57.465Z,22.05
2022-08-23T22:24:26.445Z,21.99
2022-08-23T22:26:55.410Z,21.97
2022-08-23T22:29:23.592Z,21.93
2022-08-23T22:31:52.905Z,21.89
2022-08-23T22:34:20.881Z,21.87
2022-08-23T22:36:52.109Z,21.80
2022-08-23T22:39:20.780Z,21.78
2022-08-23T22:41:48.715Z,21.73
2022-08-23T22:44:16.958Z,21.67
2022-08-23T22:46:45.107Z,21.65
2022-08-23T22:49:14.486Z,21.57
2022-08-23T22:51:42.908Z,21.57
2022-08-23T22:54:11.712Z,21.52
2022-08-23T22:56:42.518Z,21.48
2022-08-23T22:59:11.225Z,21.46
2022-08-23T23:01:41.809Z,21.42
2022-08-23T23:04:16.031Z,21.38
2022-08-23T23:06:45.722Z,21.32
2022-08-23T23:09:14.502Z,21.33
2022-08-23T23:11:43.817Z,21.26
2022-08-23T23:14:12.463Z,21.15
2022-08-23T23:16:41.489Z,21.17
2022-08-23T23:19:27.156Z,21.13
2022-08-23T23:21:58.696Z,21.10
2022-08-23T23:24:29.435Z,21.04
2022-08-23T23:26:58.067Z,21.01
2022-08-23T23:29:26.762Z,20.95
2022-08-23T23:31:54.980Z,20.94
2022-08-23T23:34:23.415Z,20.93
2022-08-23T23:36:55.220Z,20.74
2022-08-23T23:39:25.131Z,20.82
2022-08-23T23:41:53.110Z,20.82
2022-08-23T23:44:29.156Z,20.78
2022-08-23T23:46:59.488Z,20.76
2022-08-23T23:49:32.276Z,20.73
2022-08-23T23:52:03.213Z,20.69
2022-08-23T23:54:33.979Z,20.63
2022-08-23T23:57:02.246Z,20.60
2022-08-23T23:59:30.363Z,20.53
